Dimitrios X. — SVA7053 — position and weather

sailwx.info

Track history (hours):
 
Tides and Currents Weather Stations Pressure Air Temp Water Temp Dewpoint Dewpoint Depression Visibility Wind Speed Wind Dir Waves Ship Positions

Dimitrios X.

Last reported at 2017-Dec-11 17:00 UTC. Time now 2017-Dec-13 20:21 UTC.
Position N 40°47' E 024°42'.

Length 100 m; draft 2.3 m.

Type: Ship. MMSI: 239965400.

Date/timePositionNaut miles runAvg speedWind from/ knotsBaromVisibWave heightAir tempDewpointWater temp
2017-Dec-11 17:00N 40°47' E 024°42'0 0.0
2017-Dec-11 16:30N 40°47' E 024°42'0 0.0
2017-Dec-11 16:00N 40°47' E 024°42'1 1.7
2017-Dec-11 15:30N 40°48' E 024°42'4 7.7
2017-Dec-11 15:00N 40°51' E 024°42'1 1.9
2017-Dec-11 14:30N 40°52' E 024°41'5 9.9
2017-Dec-11 14:00N 40°47' E 024°42'0 0.0
2017-Dec-11 13:30N 40°47' E 024°42'0 0.0
2017-Dec-11 13:00N 40°47' E 024°42'0 0.0
2017-Dec-11 12:30N 40°47' E 024°42'3 6.6
2017-Dec-11 12:00N 40°50' E 024°41'2 3.5
2017-Dec-11 11:30N 40°51' E 024°42'1 1.2
2017-Dec-11 11:00N 40°52' E 024°41'5 9.6
2017-Dec-11 10:30N 40°47' E 024°42'0 0.6
2017-Dec-11 10:00N 40°47' E 024°43'0 0.0
2017-Dec-10 18:26N 40°47' E 024°43'1 1.7
2017-Dec-10 18:00N 40°47' E 024°42'4 8.1
2017-Dec-10 17:30N 40°51' E 024°42'0 0.0
2017-Dec-10 17:00N 40°51' E 024°42'1 2.3
2017-Dec-10 16:30N 40°51' E 024°41'5 9.5
2017-Dec-10 16:00N 40°47' E 024°42'0 0.0
2017-Dec-10 15:30N 40°47' E 024°42'0 0.0
2017-Dec-10 15:00N 40°47' E 024°42'1 1.8
2017-Dec-10 14:30N 40°48' E 024°41'4 7.8
2017-Dec-10 14:00N 40°51' E 024°42'1 2.2
2017-Dec-10 13:30N 40°51' E 024°41'5 9.0
2017-Dec-10 13:00N 40°47' E 024°42'2 3.3
2017-Dec-10 12:30N 40°48' E 024°40'5 9.5
2017-Dec-10 12:00N 40°46' E 024°35'1 0.0
2017-Dec-09 09:25N 40°46' E 024°35'1 3.1
2017-Dec-09 09:00N 40°47' E 024°35'5 9.4
2017-Dec-09 08:30N 40°47' E 024°41'3 5.4
2017-Dec-09 08:00N 40°50' E 024°41'2 3.5
2017-Dec-09 07:30N 40°51' E 024°42'1 1.5
2017-Dec-09 07:00N 40°52' E 024°41'5 9.8
2017-Dec-09 06:30N 40°47' E 024°42'0 0.0
2017-Dec-09 06:00N 40°47' E 024°42'0 0.0
2017-Dec-09 05:30N 40°47' E 024°42'0 0.0
2017-Dec-09 05:00N 40°47' E 024°42'1 2.4
2017-Dec-09 04:30N 40°48' E 024°41'4 7.4
2017-Dec-09 04:00N 40°51' E 024°42'0 0.0
2017-Dec-08 15:44N 40°51' E 024°42'1 2.9
2017-Dec-08 15:30N 40°52' E 024°41'5 9.8
2017-Dec-08 15:00N 40°47' E 024°42'0 0.0
2017-Dec-08 14:31N 40°47' E 024°42'0 0.0
2017-Dec-08 14:00N 40°47' E 024°42'0 0.0
2017-Dec-08 13:29N 40°47' E 024°42'4 7.5
2017-Dec-08 13:00N 40°50' E 024°41'2 3.4
2017-Dec-08 12:31N 40°51' E 024°42'1 1.1
2017-Dec-08 12:00N 40°52' E 024°41'5 9.7
2017-Dec-08 11:30N 40°47' E 024°42'0 0.5
2017-Dec-08 11:00N 40°47' E 024°42'0 0.0
2017-Dec-07 11:04N 40°47' E 024°43'0 0.1
2017-Dec-07 11:00N 40°47' E 024°43'3 6.8
2017-Dec-07 10:30N 40°50' E 024°41'2 3.3
2017-Dec-07 10:00N 40°51' E 024°42'1 1.1
2017-Dec-07 09:30N 40°52' E 024°41'5 9.8
2017-Dec-07 09:00N 40°47' E 024°42'0 0.0
2017-Dec-07 08:30N 40°47' E 024°42'3 6.9
2017-Dec-07 08:00N 40°50' E 024°41'2 3.2
2017-Dec-07 07:30N 40°51' E 024°42'1 1.4
2017-Dec-07 07:00N 40°52' E 024°41'5 9.8
2017-Dec-07 06:30N 40°47' E 024°42'0 0.0
2017-Dec-07 06:00N 40°47' E 024°42'0 0.0
2017-Dec-07 05:30N 40°47' E 024°42'0 0.0
2017-Dec-07 05:00N 40°47' E 024°42'1 2.8
2017-Dec-07 04:30N 40°48' E 024°42'3 6.8
2017-Dec-07 04:00N 40°51' E 024°42'  
2017-Dec-04 10:30N 40°51' E 024°42'2 4.7
2017-Dec-04 10:00N 40°49' E 024°42'2 4.7
2017-Dec-04 09:30N 40°47' E 024°42'4 7.1
2017-Dec-04 09:00N 40°50' E 024°41'2 3.4
2017-Dec-04 08:30N 40°51' E 024°42'0 1.0
2017-Dec-04 08:00N 40°52' E 024°42'5 9.6
2017-Dec-04 07:30N 40°47' E 024°42'0 0.0
2017-Dec-04 07:00N 40°47' E 024°42'3 6.9
2017-Dec-04 06:30N 40°50' E 024°41'2 3.3
2017-Dec-04 06:00N 40°51' E 024°42'1 2.6
2017-Dec-04 05:30N 40°50' E 024°41'4 7.4
2017-Dec-04 05:00N 40°47' E 024°42'0 0.0
2017-Dec-04 04:30N 40°47' E 024°42'0 0.0
2017-Dec-03 11:27N 40°47' E 024°42'0 0.0
2017-Dec-03 11:01N 40°47' E 024°42'4 7.5
2017-Dec-03 10:31N 40°50' E 024°41'2 3.2
2017-Dec-03 10:00N 40°51' E 024°42'1 1.3
2017-Dec-03 09:30N 40°52' E 024°41'5 9.8
2017-Dec-03 09:01N 40°47' E 024°42'0 0.0
2017-Dec-03 08:30N 40°47' E 024°42'0 0.0
2017-Dec-03 08:00N 40°47' E 024°42'2 3.2
2017-Dec-03 07:30N 40°48' E 024°41'2 0.1
2017-Dec-02 12:03N 40°47' E 024°42'0 0.0
2017-Dec-02 12:01N 40°47' E 024°42'1 2.6
2017-Dec-02 11:31N 40°48' E 024°41'4 7.2
2017-Dec-02 11:01N 40°51' E 024°42'0 0.1
2017-Dec-02 10:31N 40°51' E 024°42'2 4.5
2017-Dec-02 10:00N 40°49' E 024°41'3 5.1
2017-Dec-02 09:31N 40°47' E 024°42'4 8.4
2017-Dec-02 09:01N 40°51' E 024°41'1 2.7
2017-Dec-02 08:31N 40°51' E 024°42'1 2.4
2017-Dec-02 08:00N 40°51' E 024°41'4 8.1
2017-Dec-02 07:29N 40°47' E 024°42'0 0.0
2017-Dec-02 06:59N 40°47' E 024°42'0 0.0
2017-Dec-02 06:29N 40°47' E 024°42'0 0.0
2017-Dec-02 05:58N 40°47' E 024°42'0 0.0
2017-Dec-02 05:19N 40°47' E 024°42'0 0.0
2017-Dec-02 04:58N 40°47' E 024°42'0 0.0
2017-Dec-02 04:28N 40°47' E 024°42'  
Track history (hours):
 
Tides and Currents Weather Stations Pressure Air Temp Water Temp Dewpoint Dewpoint Depression Visibility Wind Speed Wind Dir Waves Ship Positions

Dimitrios X.

Last reported at 2017-Dec-11 17:00 UTC. Time now 2017-Dec-13 20:21 UTC.
Position N 40°47' E 024°42'.

Length 100 m; draft 2.3 m.

Type: Ship. MMSI: 239965400.

Date/timePositionNaut miles runAvg speedWind from/ knotsBaromVisibWave heightAir tempDewpointWater temp
2017-Dec-11 17:00N 40°47' E 024°42'0 0.0
2017-Dec-11 16:30N 40°47' E 024°42'0 0.0
2017-Dec-11 16:00N 40°47' E 024°42'1 1.7
2017-Dec-11 15:30N 40°48' E 024°42'4 7.7
2017-Dec-11 15:00N 40°51' E 024°42'1 1.9
2017-Dec-11 14:30N 40°52' E 024°41'5 9.9
2017-Dec-11 14:00N 40°47' E 024°42'0 0.0
2017-Dec-11 13:30N 40°47' E 024°42'0 0.0
2017-Dec-11 13:00N 40°47' E 024°42'0 0.0
2017-Dec-11 12:30N 40°47' E 024°42'3 6.6
2017-Dec-11 12:00N 40°50' E 024°41'2 3.5
2017-Dec-11 11:30N 40°51' E 024°42'1 1.2
2017-Dec-11 11:00N 40°52' E 024°41'5 9.6
2017-Dec-11 10:30N 40°47' E 024°42'0 0.6
2017-Dec-11 10:00N 40°47' E 024°43'0 0.0
2017-Dec-10 18:26N 40°47' E 024°43'1 1.7
2017-Dec-10 18:00N 40°47' E 024°42'4 8.1
2017-Dec-10 17:30N 40°51' E 024°42'0 0.0
2017-Dec-10 17:00N 40°51' E 024°42'1 2.3
2017-Dec-10 16:30N 40°51' E 024°41'5 9.5
2017-Dec-10 16:00N 40°47' E 024°42'0 0.0
2017-Dec-10 15:30N 40°47' E 024°42'0 0.0
2017-Dec-10 15:00N 40°47' E 024°42'1 1.8
2017-Dec-10 14:30N 40°48' E 024°41'4 7.8
2017-Dec-10 14:00N 40°51' E 024°42'1 2.2
2017-Dec-10 13:30N 40°51' E 024°41'5 9.0
2017-Dec-10 13:00N 40°47' E 024°42'2 3.3
2017-Dec-10 12:30N 40°48' E 024°40'5 9.5
2017-Dec-10 12:00N 40°46' E 024°35'1 0.0
2017-Dec-09 09:25N 40°46' E 024°35'1 3.1
2017-Dec-09 09:00N 40°47' E 024°35'5 9.4
2017-Dec-09 08:30N 40°47' E 024°41'3 5.4
2017-Dec-09 08:00N 40°50' E 024°41'2 3.5
2017-Dec-09 07:30N 40°51' E 024°42'1 1.5
2017-Dec-09 07:00N 40°52' E 024°41'5 9.8
2017-Dec-09 06:30N 40°47' E 024°42'0 0.0
2017-Dec-09 06:00N 40°47' E 024°42'0 0.0
2017-Dec-09 05:30N 40°47' E 024°42'0 0.0
2017-Dec-09 05:00N 40°47' E 024°42'1 2.4
2017-Dec-09 04:30N 40°48' E 024°41'4 7.4
2017-Dec-09 04:00N 40°51' E 024°42'0 0.0
2017-Dec-08 15:44N 40°51' E 024°42'1 2.9
2017-Dec-08 15:30N 40°52' E 024°41'5 9.8
2017-Dec-08 15:00N 40°47' E 024°42'0 0.0
2017-Dec-08 14:31N 40°47' E 024°42'0 0.0
2017-Dec-08 14:00N 40°47' E 024°42'0 0.0
2017-Dec-08 13:29N 40°47' E 024°42'4 7.5
2017-Dec-08 13:00N 40°50' E 024°41'2 3.4
2017-Dec-08 12:31N 40°51' E 024°42'1 1.1
2017-Dec-08 12:00N 40°52' E 024°41'5 9.7
2017-Dec-08 11:30N 40°47' E 024°42'0 0.5
2017-Dec-08 11:00N 40°47' E 024°42'0 0.0
2017-Dec-07 11:04N 40°47' E 024°43'0 0.1
2017-Dec-07 11:00N 40°47' E 024°43'3 6.8
2017-Dec-07 10:30N 40°50' E 024°41'2 3.3
2017-Dec-07 10:00N 40°51' E 024°42'1 1.1
2017-Dec-07 09:30N 40°52' E 024°41'5 9.8
2017-Dec-07 09:00N 40°47' E 024°42'0 0.0
2017-Dec-07 08:30N 40°47' E 024°42'3 6.9
2017-Dec-07 08:00N 40°50' E 024°41'2 3.2
2017-Dec-07 07:30N 40°51' E 024°42'1 1.4
2017-Dec-07 07:00N 40°52' E 024°41'5 9.8
2017-Dec-07 06:30N 40°47' E 024°42'0 0.0
2017-Dec-07 06:00N 40°47' E 024°42'0 0.0
2017-Dec-07 05:30N 40°47' E 024°42'0 0.0
2017-Dec-07 05:00N 40°47' E 024°42'1 2.8
2017-Dec-07 04:30N 40°48' E 024°42'3 6.8
2017-Dec-07 04:00N 40°51' E 024°42'  
2017-Dec-04 10:30N 40°51' E 024°42'2 4.7
2017-Dec-04 10:00N 40°49' E 024°42'2 4.7
2017-Dec-04 09:30N 40°47' E 024°42'4 7.1
2017-Dec-04 09:00N 40°50' E 024°41'2 3.4
2017-Dec-04 08:30N 40°51' E 024°42'0 1.0
2017-Dec-04 08:00N 40°52' E 024°42'5 9.6
2017-Dec-04 07:30N 40°47' E 024°42'0 0.0
2017-Dec-04 07:00N 40°47' E 024°42'3 6.9
2017-Dec-04 06:30N 40°50' E 024°41'2 3.3
2017-Dec-04 06:00N 40°51' E 024°42'1 2.6
2017-Dec-04 05:30N 40°50' E 024°41'4 7.4
2017-Dec-04 05:00N 40°47' E 024°42'0 0.0
2017-Dec-04 04:30N 40°47' E 024°42'0 0.0
2017-Dec-03 11:27N 40°47' E 024°42'0 0.0
2017-Dec-03 11:01N 40°47' E 024°42'4 7.5
2017-Dec-03 10:31N 40°50' E 024°41'2 3.2
2017-Dec-03 10:00N 40°51' E 024°42'1 1.3
2017-Dec-03 09:30N 40°52' E 024°41'5 9.8
2017-Dec-03 09:01N 40°47' E 024°42'0 0.0
2017-Dec-03 08:30N 40°47' E 024°42'0 0.0
2017-Dec-03 08:00N 40°47' E 024°42'2 3.2
2017-Dec-03 07:30N 40°48' E 024°41'2 0.1
2017-Dec-02 12:03N 40°47' E 024°42'0 0.0
2017-Dec-02 12:01N 40°47' E 024°42'1 2.6
2017-Dec-02 11:31N 40°48' E 024°41'4 7.2
2017-Dec-02 11:01N 40°51' E 024°42'0 0.1
2017-Dec-02 10:31N 40°51' E 024°42'2 4.5
2017-Dec-02 10:00N 40°49' E 024°41'3 5.1
2017-Dec-02 09:31N 40°47' E 024°42'4 8.4
2017-Dec-02 09:01N 40°51' E 024°41'1 2.7
2017-Dec-02 08:31N 40°51' E 024°42'1 2.4
2017-Dec-02 08:00N 40°51' E 024°41'4 8.1
2017-Dec-02 07:29N 40°47' E 024°42'0 0.0
2017-Dec-02 06:59N 40°47' E 024°42'0 0.0
2017-Dec-02 06:29N 40°47' E 024°42'0 0.0
2017-Dec-02 05:58N 40°47' E 024°42'0 0.0
2017-Dec-02 05:19N 40°47' E 024°42'0 0.0
2017-Dec-02 04:58N 40°47' E 024°42'0 0.0
2017-Dec-02 04:28N 40°47' E 024°42'  

Dump ship's entire track history